Time;durP1;ratioP1;P1;durP2;ratioP2;P2;SDS_P1;SDS_P2;PMS_P1;PMS_P2;Temp;Humidity;BMP_temperature;BMP_pressure;BME280_temperature;BME280_humidity;BME280_pressure;Samples;Min_cycle;Max_cycle;Signal;HPM_P1;HPM_P2
2021/01/28 00:02:19;;;;;;;43.17;15.98;;;;;;;6.64;100.00;100052.44;4990809;28;20034;-80
2021/01/28 00:04:45;;;;;;;49.05;17.95;;;;;;;6.71;100.00;100059.88;4985011;28;20375;-79
2021/01/28 00:07:10;;;;;;;42.63;16.85;;;;;;;6.56;100.00;100053.41;4989014;28;20118;-79
2021/01/28 00:09:36;;;;;;;37.72;16.13;;;;;;;6.52;100.00;100055.19;5007896;28;20034;-79
2021/01/28 00:12:01;;;;;;;42.88;17.08;;;;;;;6.57;100.00;100046.91;4990588;28;20022;-80
2021/01/28 00:14:27;;;;;;;42.17;16.23;;;;;;;6.79;100.00;100043.69;4990815;28;20429;-79
2021/01/28 00:16:53;;;;;;;38.47;16.80;;;;;;;6.57;100.00;100052.25;4995425;28;20062;-80
2021/01/28 00:19:18;;;;;;;41.28;15.98;;;;;;;6.49;100.00;100037.16;4990756;28;20031;-79
2021/01/28 00:21:44;;;;;;;40.83;17.15;;;;;;;6.66;100.00;100034.16;4990874;28;20399;-80
2021/01/28 00:24:09;;;;;;;45.38;18.13;;;;;;;6.80;100.00;100031.84;4961091;28;20048;-79
2021/01/28 00:26:35;;;;;;;43.97;16.63;;;;;;;6.60;100.00;100034.75;4982797;28;20573;-79
2021/01/28 00:29:00;;;;;;;39.33;16.92;;;;;;;6.87;100.00;100020.53;4973938;28;20368;-80
2021/01/28 00:31:26;;;;;;;37.45;16.38;;;;;;;6.78;100.00;100019.91;4988820;28;20491;-79
2021/01/28 00:33:51;;;;;;;41.17;17.15;;;;;;;6.60;100.00;100030.16;5004776;28;20080;-79
2021/01/28 00:36:17;;;;;;;41.75;17.00;;;;;;;6.58;100.00;100024.38;4970545;28;20501;-80
2021/01/28 00:38:42;;;;;;;40.38;16.30;;;;;;;6.57;100.00;100014.81;4986566;28;20042;-80
2021/01/28 00:41:10;;;;;;;35.30;15.55;;;;;;;6.31;100.00;100027.88;4990569;28;20896;-80
2021/01/28 00:43:35;;;;;;;34.42;16.00;;;;;;;6.64;100.00;100024.94;4982236;28;20167;-79
2021/01/28 00:46:03;;;;;;;43.92;17.67;;;;;;;6.77;100.00;100024.50;4975522;28;20050;-79
2021/01/28 00:48:28;;;;;;;43.65;16.85;;;;;;;6.51;100.00;100024.22;4991638;28;20015;-79
2021/01/28 00:50:58;;;;;;;37.17;16.70;;;;;;;6.58;100.00;100034.31;4994456;28;20065;-79
2021/01/28 00:53:24;;;;;;;35.28;15.50;;;;;;;6.66;100.00;100028.78;4995468;28;20034;-80
2021/01/28 00:55:50;;;;;;;47.33;16.95;;;;;;;6.56;100.00;100029.31;4990327;28;20121;-80
2021/01/28 00:58:39;;;;;;;36.83;15.15;;;;;;;6.67;100.00;100014.31;4980668;28;20042;-80
2021/01/28 01:01:05;;;;;;;43.67;17.40;;;;;;;6.68;100.00;100015.84;4954164;28;20040;-79
2021/01/28 01:03:31;;;;;;;39.03;16.73;;;;;;;6.83;100.00;100008.97;4978444;28;20072;-79
2021/01/28 01:05:56;;;;;;;34.38;15.95;;;;;;;6.52;100.00;100020.44;4993844;28;20049;-79
2021/01/28 01:08:28;;;;;;;39.50;15.98;;;;;;;6.50;100.00;100020.00;4979505;28;20029;-79
2021/01/28 01:11:02;;;;;;;33.97;15.48;;;;;;;6.55;100.00;100024.28;4989297;28;20038;-79
2021/01/28 01:13:31;;;;;;;30.30;14.32;;;;;;;6.39;100.00;100034.97;4983692;28;20034;-79
2021/01/28 01:16:10;;;;;;;33.80;15.63;;;;;;;6.36;100.00;100033.78;4974438;28;20077;-80
2021/01/28 01:18:39;;;;;;;33.08;15.35;;;;;;;6.65;100.00;100031.81;4977347;28;20403;-80
2021/01/28 01:21:06;;;;;;;29.90;13.98;;;;;;;6.69;100.00;100038.03;4993735;28;20031;-80
2021/01/28 01:23:32;;;;;;;29.67;13.65;;;;;;;6.63;100.00;100039.41;4989033;28;20053;-80
2021/01/28 01:26:05;;;;;;;36.22;12.60;;;;;;;6.74;100.00;100038.56;4973976;28;20058;-80
2021/01/28 01:28:31;;;;;;;30.00;13.23;;;;;;;6.48;100.00;100048.97;4975912;28;20826;-80
2021/01/28 01:31:00;;;;;;;24.80;12.50;;;;;;;6.23;100.00;100045.63;4992383;28;20647;-80
2021/01/28 01:33:26;;;;;;;25.05;12.05;;;;;;;6.30;100.00;100056.53;4967655;28;20034;-80
2021/01/28 01:36:10;;;;;;;21.27;11.18;;;;;;;6.48;100.00;100048.97;5002731;28;20077;-80
2021/01/28 01:38:42;;;;;;;25.10;11.82;;;;;;;6.27;100.00;100054.50;4991436;28;20042;-80
2021/01/28 01:41:08;;;;;;;20.77;10.75;;;;;;;6.31;100.00;100044.69;4993698;28;20026;-80
2021/01/28 01:43:38;;;;;;;22.60;11.40;;;;;;;6.39;100.00;100051.00;5004168;28;20104;-80
2021/01/28 01:46:11;;;;;;;23.17;11.25;;;;;;;6.44;100.00;100045.44;4978887;28;20037;-79
2021/01/28 01:48:49;;;;;;;23.33;11.38;;;;;;;6.34;100.00;100043.25;4974661;28;20061;-79
2021/01/28 01:51:23;;;;;;;24.55;11.65;;;;;;;6.48;100.00;100046.31;4959729;28;20096;-79
2021/01/28 01:53:52;;;;;;;21.17;10.70;;;;;;;6.47;100.00;100052.75;4988677;28;20030;-79
2021/01/28 01:56:28;;;;;;;22.08;10.15;;;;;;;6.48;100.00;100054.31;5005129;28;20461;-79
2021/01/28 01:59:00;;;;;;;23.48;11.23;;;;;;;6.27;100.00;100053.75;4998514;28;20039;-79
2021/01/28 02:02:06;;;;;;;24.30;10.68;;;;;;;6.45;100.00;100055.00;4972544;28;20087;-80
2021/01/28 02:05:01;;;;;;;26.80;11.20;;;;;;;6.39;100.00;100051.00;4942217;28;20055;-79
2021/01/28 02:07:47;;;;;;;23.60;10.70;;;;;;;6.21;100.00;100049.75;4937874;29;20043;-80
2021/01/28 02:10:32;;;;;;;22.58;10.13;;;;;;;6.34;100.00;100045.91;4948134;29;20521;-79
2021/01/28 02:13:16;;;;;;;22.45;10.73;;;;;;;6.27;100.00;100062.53;4953213;28;20159;-80
2021/01/28 02:15:50;;;;;;;23.63;10.52;;;;;;;6.47;100.00;100049.28;4944274;28;20428;-79
2021/01/28 02:18:22;;;;;;;19.55;9.30;;;;;;;6.19;100.00;100052.75;4946380;28;20045;-79
2021/01/28 02:21:15;;;;;;;19.52;8.80;;;;;;;6.18;100.00;100053.09;4951971;29;20154;-79
2021/01/28 02:23:59;;;;;;;18.90;9.10;;;;;;;6.15;100.00;100054.56;4939037;29;20509;-80
2021/01/28 02:26:29;;;;;;;18.40;9.02;;;;;;;6.05;100.00;100055.06;4949423;29;20130;-79
2021/01/28 02:29:08;;;;;;;22.77;10.43;;;;;;;6.06;100.00;100042.44;4935304;28;20039;-80
2021/01/28 02:31:55;;;;;;;22.90;10.27;;;;;;;5.98;100.00;100052.16;4908393;28;20642;-80
2021/01/28 02:34:23;;;;;;;23.23;10.27;;;;;;;5.98;100.00;100051.41;4848192;29;20045;-79
2021/01/28 02:37:21;;;;;;;26.02;11.25;;;;;;;5.99;100.00;100048.38;4866412;29;20029;-79
2021/01/28 02:39:49;;;;;;;30.38;11.82;;;;;;;5.95;100.00;100052.06;4863633;29;20076;-80
2021/01/28 02:42:29;;;;;;;25.40;11.30;;;;;;;6.04;100.00;100045.47;4873988;29;20076;-79
2021/01/28 02:45:07;;;;;;;26.40;10.52;;;;;;;6.12;100.00;100043.75;4912668;29;20416;-79
2021/01/28 02:47:54;;;;;;;30.05;11.05;;;;;;;5.90;100.00;100047.75;4923870;29;20086;-80
2021/01/28 02:50:39;;;;;;;23.98;10.05;;;;;;;5.94;100.00;100055.88;4904350;29;20127;-79
2021/01/28 02:53:06;;;;;;;30.23;11.02;;;;;;;5.92;100.00;100053.50;4915426;29;20107;-79
2021/01/28 02:55:35;;;;;;;27.30;10.82;;;;;;;5.96;100.00;100050.97;4914706;29;20087;-80
2021/01/28 02:58:03;;;;;;;28.92;11.00;;;;;;;5.96;100.00;100049.03;4899204;29;20474;-79
2021/01/28 03:00:38;;;;;;;28.63;10.15;;;;;;;6.08;100.00;100054.34;4901627;29;20394;-79
2021/01/28 03:03:13;;;;;;;28.63;10.52;;;;;;;6.12;100.00;100057.13;4914977;29;20103;-79
2021/01/28 03:05:44;;;;;;;31.90;11.13;;;;;;;5.91;100.00;100059.97;4912969;29;20040;-80
2021/01/28 03:08:10;;;;;;;28.60;11.07;;;;;;;5.81;100.00;100056.94;4904187;29;20100;-79
2021/01/28 03:10:36;;;;;;;27.00;10.70;;;;;;;5.93;100.00;100064.97;4914271;28;20122;-79
2021/01/28 03:13:05;;;;;;;31.60;10.38;;;;;;;6.02;100.00;100071.00;4993030;28;20038;-79
2021/01/28 03:15:40;;;;;;;28.15;9.88;;;;;;;6.17;100.00;100062.25;4993328;28;20030;-79
2021/01/28 03:18:06;;;;;;;28.58;9.27;;;;;;;6.08;100.00;100056.25;4978892;28;20035;-80
2021/01/28 03:20:32;;;;;;;35.85;10.45;;;;;;;5.83;100.00;100071.56;4991894;28;20046;-79
2021/01/28 03:22:58;;;;;;;30.30;10.27;;;;;;;5.75;100.00;100066.34;4992587;28;20030;-79
2021/01/28 03:25:44;;;;;;;33.70;10.57;;;;;;;5.38;100.00;100062.94;4991393;28;20058;-79
2021/01/28 03:28:11;;;;;;;32.25;10.13;;;;;;;5.46;100.00;100068.13;4992419;28;20088;-79
2021/01/28 03:30:45;;;;;;;33.72;10.10;;;;;;;5.47;100.00;100068.91;4992453;28;20038;-80
2021/01/28 03:33:15;;;;;;;33.17;9.90;;;;;;;5.53;100.00;100064.13;4993057;28;20121;-79
2021/01/28 03:35:41;;;;;;;27.42;9.55;;;;;;;5.53;100.00;100066.81;4993073;28;20073;-79
2021/01/28 03:38:11;;;;;;;29.52;9.27;;;;;;;5.54;100.00;100058.44;4992362;28;20018;-79
2021/01/28 03:40:39;;;;;;;32.70;10.77;;;;;;;5.53;100.00;100066.81;4966092;28;20033;-79
2021/01/28 03:43:06;;;;;;;26.10;8.95;;;;;;;5.59;100.00;100060.13;4986395;28;20514;-79
2021/01/28 03:45:32;;;;;;;25.30;8.90;;;;;;;5.73;100.00;100060.56;4983162;28;20034;-79
2021/01/28 03:47:59;;;;;;;29.73;10.02;;;;;;;5.55;100.00;100067.25;4979267;28;20069;-79
2021/01/28 03:50:45;;;;;;;26.15;8.90;;;;;;;5.38;100.00;100061.00;4980508;28;20101;-79
2021/01/28 03:53:27;;;;;;;24.58;8.73;;;;;;;5.66;100.00;100060.31;5000366;28;20030;-80
2021/01/28 03:55:56;;;;;;;29.00;9.27;;;;;;;5.71;100.00;100068.13;4992887;28;20031;-79
2021/01/28 03:58:24;;;;;;;30.58;9.65;;;;;;;5.51;100.00;100061.81;4992134;28;20035;-80
2021/01/28 04:01:10;;;;;;;25.70;8.60;;;;;;;5.38;100.00;100052.25;4977862;28;20129;-79
2021/01/28 04:03:35;;;;;;;24.90;8.48;;;;;;;5.61;100.00;100057.91;4992768;28;20037;-79
2021/01/28 04:06:14;;;;;;;26.52;8.70;;;;;;;5.61;100.00;100056.00;4992799;28;20080;-80
2021/01/28 04:09:09;;;;;;;25.02;8.80;;;;;;;5.64;100.00;100057.22;4988876;28;20121;-79
2021/01/28 04:11:49;;;;;;;21.73;8.40;;;;;;;5.74;100.00;100062.09;4996338;28;20410;-79
2021/01/28 04:14:30;;;;;;;26.90;8.45;;;;;;;5.81;100.00;100067.63;5008684;28;20068;-79
2021/01/28 04:16:56;;;;;;;26.95;8.35;;;;;;;5.83;100.00;100062.75;4996591;28;20062;-79
2021/01/28 04:19:21;;;;;;;21.50;8.25;;;;;;;5.73;100.00;100071.25;4984147;28;20098;-79
2021/01/28 04:21:47;;;;;;;24.38;8.15;;;;;;;5.80;100.00;100060.75;4991258;28;20451;-78
2021/01/28 04:24:13;;;;;;;23.20;8.63;;;;;;;5.78;100.00;100065.66;5005651;28;20037;-79
2021/01/28 04:26:46;;;;;;;24.02;8.00;;;;;;;5.71;100.00;100068.88;4991741;28;20062;-80
2021/01/28 04:29:14;;;;;;;21.60;7.72;;;;;;;5.52;100.00;100067.94;4996042;28;20049;-79
2021/01/28 04:31:43;;;;;;;15.50;6.63;;;;;;;5.44;100.00;100062.34;4993093;28;20049;-79
2021/01/28 04:34:18;;;;;;;14.48;6.60;;;;;;;5.10;100.00;100057.47;4994913;28;20037;-79
2021/01/28 04:36:48;;;;;;;16.33;6.72;;;;;;;5.17;100.00;100052.34;5010978;28;20034;-79
2021/01/28 04:39:42;;;;;;;13.90;6.32;;;;;;;5.12;100.00;100049.91;4999944;28;20021;-79
2021/01/28 04:42:22;;;;;;;18.10;6.72;;;;;;;5.30;100.00;100053.91;4961924;28;20034;-79
2021/01/28 04:44:51;;;;;;;14.70;6.40;;;;;;;5.31;100.00;100046.69;5000468;28;20037;-79
2021/01/28 04:47:25;;;;;;;15.80;6.85;;;;;;;5.15;100.00;100046.56;4994570;28;20034;-79
2021/01/28 04:49:57;;;;;;;17.55;6.15;;;;;;;5.17;100.00;100039.00;5006322;28;20085;-79
2021/01/28 04:52:29;;;;;;;15.52;6.60;;;;;;;5.07;100.00;100049.34;4979798;28;20187;-79
2021/01/28 04:55:15;;;;;;;17.13;6.55;;;;;;;5.09;100.00;100042.56;4982856;28;20052;-79
2021/01/28 04:57:50;;;;;;;16.92;6.63;;;;;;;5.09;100.00;100055.13;4990682;28;20522;-79
2021/01/28 05:00:21;;;;;;;19.60;6.38;;;;;;;5.20;100.00;100054.38;4996517;28;20026;-79
2021/01/28 05:03:23;;;;;;;15.98;6.47;;;;;;;5.11;100.00;100052.91;4965546;28;20053;-79
2021/01/28 05:06:15;;;;;;;15.90;6.43;;;;;;;5.16;100.00;100053.47;4995430;28;20033;-79
2021/01/28 05:09:01;;;;;;;15.25;5.90;;;;;;;5.21;100.00;100047.91;4994209;28;20034;-79
2021/01/28 05:11:57;;;;;;;14.18;6.47;;;;;;;5.04;100.00;100047.34;5007608;28;20053;-79
2021/01/28 05:14:52;;;;;;;16.48;6.53;;;;;;;5.18;100.00;100045.91;4969946;28;20433;-78
2021/01/28 05:17:37;;;;;;;16.75;6.95;;;;;;;5.36;100.00;100035.78;4991082;28;20124;-79
2021/01/28 05:20:28;;;;;;;16.02;6.55;;;;;;;5.37;100.00;100030.13;4992213;28;20506;-79
2021/01/28 05:23:10;;;;;;;16.35;6.75;;;;;;;5.47;100.00;100035.00;4959933;28;20031;-79
2021/01/28 05:25:43;;;;;;;17.25;7.03;;;;;;;5.42;99.71;100045.88;4993455;28;20026;-79
2021/01/28 05:28:33;;;;;;;12.95;6.13;;;;;;;5.29;99.46;100036.34;4997020;28;20095;-79
2021/01/28 05:31:26;;;;;;;14.77;6.25;;;;;;;5.26;99.55;100047.69;4992102;28;20108;-79
2021/01/28 05:34:10;;;;;;;16.63;6.45;;;;;;;5.35;98.86;100045.69;5010237;28;20030;-79
2021/01/28 05:37:01;;;;;;;15.07;6.63;;;;;;;5.12;98.70;100036.56;4989447;28;20054;-79
2021/01/28 05:39:36;;;;;;;16.50;6.40;;;;;;;5.13;99.24;100040.03;4980429;28;20070;-79
2021/01/28 05:42:31;;;;;;;15.43;6.28;;;;;;;5.20;99.32;100034.91;5010931;28;20038;-79
2021/01/28 05:45:33;;;;;;;15.45;6.40;;;;;;;5.21;98.79;100033.78;5002992;28;20035;-79
2021/01/28 05:48:29;;;;;;;19.33;7.47;;;;;;;5.11;98.92;100029.66;4986049;28;20053;-79
2021/01/28 05:51:23;;;;;;;18.08;6.97;;;;;;;5.03;99.45;100029.78;4991955;28;20038;-79
2021/01/28 05:54:04;;;;;;;15.50;6.88;;;;;;;5.05;99.59;100036.31;4999010;28;20403;-79
2021/01/28 05:57:07;;;;;;;15.32;6.72;;;;;;;4.95;99.27;100033.34;5000497;28;20034;-79
2021/01/28 05:59:53;;;;;;;16.95;6.90;;;;;;;4.92;100.00;100037.44;4997646;28;20615;-79
2021/01/28 06:02:34;;;;;;;18.10;7.00;;;;;;;4.98;100.00;100029.97;4981014;28;20093;-79
2021/01/28 06:05:50;;;;;;;17.55;6.30;;;;;;;4.98;99.72;100028.09;4989105;28;20026;-79
2021/01/28 06:08:39;;;;;;;16.08;6.85;;;;;;;5.09;100.00;100015.13;4961274;28;20096;-79
2021/01/28 06:11:13;;;;;;;18.20;7.28;;;;;;;5.12;99.62;100003.75;4963735;28;20412;-79
2021/01/28 06:14:20;;;;;;;18.23;7.18;;;;;;;5.20;99.28;100017.00;5004954;28;20065;-79
2021/01/28 06:17:38;;;;;;;16.73;7.18;;;;;;;5.10;99.47;100001.44;4997782;28;20084;-79
2021/01/28 06:20:30;;;;;;;14.65;6.80;;;;;;;4.95;98.85;100004.78;4991387;28;20133;-79
2021/01/28 06:23:16;;;;;;;13.18;6.55;;;;;;;4.94;99.20;99997.88;4963033;28;20031;-79
2021/01/28 06:26:38;;;;;;;18.83;7.68;;;;;;;5.08;98.05;100001.00;5002945;28;20065;-80
2021/01/28 06:29:47;;;;;;;18.33;7.85;;;;;;;5.00;98.28;99996.53;5014995;28;20116;-79
2021/01/28 06:32:38;;;;;;;17.35;7.30;;;;;;;5.01;98.36;99994.66;4973197;28;20031;-79
2021/01/28 06:35:32;;;;;;;16.95;7.88;;;;;;;4.88;98.77;99991.19;5000332;28;20049;-79
2021/01/28 06:38:37;;;;;;;18.98;8.00;;;;;;;4.79;99.42;99979.06;5003008;28;20121;-78
2021/01/28 06:41:28;;;;;;;14.95;7.18;;;;;;;4.91;98.89;99987.88;4991438;28;20089;-79
2021/01/28 06:44:21;;;;;;;18.05;7.50;;;;;;;4.92;99.12;99978.75;5006528;28;20031;-79
2021/01/28 06:47:08;;;;;;;19.63;8.15;;;;;;;5.01;98.23;99987.44;5004738;28;20034;-79
2021/01/28 06:50:15;;;;;;;18.48;7.47;;;;;;;4.91;98.73;99981.75;4990885;28;20042;-79
2021/01/28 06:52:57;;;;;;;18.15;7.47;;;;;;;4.93;98.18;99974.19;4988234;28;20033;-79
2021/01/28 06:56:37;;;;;;;19.35;7.43;;;;;;;4.88;98.37;99972.53;4998309;28;20057;-79
2021/01/28 06:59:39;;;;;;;17.08;6.85;;;;;;;4.48;98.95;99976.94;4980404;28;20478;-78
2021/01/28 07:02:20;;;;;;;15.85;6.78;;;;;;;4.67;99.54;99974.50;5003498;28;20042;-79
2021/01/28 07:05:40;;;;;;;15.55;7.63;;;;;;;4.69;98.88;99980.28;4984570;28;20391;-79
2021/01/28 07:08:23;;;;;;;15.35;7.28;;;;;;;4.60;98.93;99974.28;4949292;28;20072;-79
2021/01/28 07:11:42;;;;;;;18.55;7.57;;;;;;;4.68;98.88;99964.63;4987610;28;20034;-79
2021/01/28 07:14:26;;;;;;;15.57;6.88;;;;;;;4.56;99.06;99965.41;4991234;28;20696;-79
2021/01/28 07:17:36;;;;;;;15.45;6.93;;;;;;;4.60;99.43;99963.63;4983392;28;20038;-78
2021/01/28 07:20:13;;;;;;;17.77;7.90;;;;;;;4.58;99.15;99961.31;5000408;28;20041;-79
2021/01/28 07:22:45;;;;;;;20.38;8.43;;;;;;;4.48;99.68;99966.28;4989578;28;20512;-80
2021/01/28 07:25:31;;;;;;;17.60;7.65;;;;;;;4.30;100.00;99971.00;4963997;28;20442;-79
2021/01/28 07:28:26;;;;;;;18.17;7.90;;;;;;;4.31;100.00;99975.25;4973625;28;20084;-79
2021/01/28 07:31:07;;;;;;;16.75;8.23;;;;;;;4.26;100.00;99969.31;4969085;28;20108;-79
2021/01/28 07:33:40;;;;;;;15.68;8.25;;;;;;;4.20;100.00;99973.31;4976914;28;20564;-79
2021/01/28 07:36:23;;;;;;;15.63;7.40;;;;;;;4.36;100.00;99977.69;4996964;28;20047;-79
2021/01/28 07:39:30;;;;;;;16.65;7.45;;;;;;;4.36;100.00;99982.22;5003391;28;20706;-79
2021/01/28 07:42:17;;;;;;;17.50;7.28;;;;;;;4.29;100.00;99976.66;4997595;28;20060;-80
2021/01/28 07:46:07;;;;;;;17.48;8.23;;;;;;;4.35;100.00;99972.69;4993032;28;20560;-79
2021/01/28 07:49:26;;;;;;;18.27;8.32;;;;;;;4.41;100.00;99979.38;4911997;29;20051;-79
2021/01/28 07:52:41;;;;;;;16.75;8.18;;;;;;;4.51;100.00;99979.72;4919218;28;20477;-79
2021/01/28 07:56:10;;;;;;;;;;;;;;;;;;;;;
2021/01/28 08:02:11;;;;;;;16.35;7.65;;;;;;;4.58;99.19;99984.50;4936960;28;20074;-80
2021/01/28 08:05:22;;;;;;;14.10;7.53;;;;;;;4.52;99.43;99983.16;4961442;28;20090;-80
2021/01/28 08:08:02;;;;;;;14.52;7.35;;;;;;;4.43;99.34;99985.16;4927212;28;20050;-79
2021/01/28 08:11:14;;;;;;;15.52;7.80;;;;;;;4.39;99.29;99987.69;4954309;28;20035;-79
2021/01/28 08:13:56;;;;;;;14.32;7.07;;;;;;;4.41;99.66;99982.78;4948708;28;20410;-79
2021/01/28 08:17:19;;;;;;;14.48;7.00;;;;;;;4.30;99.10;99976.34;4947769;28;20053;-79
2021/01/28 08:23:26;;;;;;;14.05;6.95;;;;;;;4.35;98.90;99975.34;4956929;28;20039;-80
2021/01/28 08:25:58;;;;;;;12.55;6.95;;;;;;;4.13;99.56;99978.38;4961032;28;20059;-79
2021/01/28 08:28:27;;;;;;;13.77;7.03;;;;;;;4.31;100.00;99974.47;4941016;28;20215;-79
2021/01/28 08:31:00;;;;;;;13.23;7.60;;;;;;;4.18;99.79;99975.53;4924415;28;20077;-79
2021/01/28 08:33:27;;;;;;;12.23;6.78;;;;;;;4.17;100.00;99961.44;4983927;28;20038;-79
2021/01/28 08:35:58;;;;;;;14.80;7.72;;;;;;;4.20;100.00;99971.41;4982419;28;20046;-79
2021/01/28 08:38:33;;;;;;;14.00;6.95;;;;;;;4.29;99.80;99974.78;4973550;28;20038;-79
2021/01/28 08:41:20;;;;;;;12.65;7.28;;;;;;;4.36;99.64;99977.69;4997001;28;20062;-79
2021/01/28 08:43:57;;;;;;;14.77;7.57;;;;;;;4.56;98.76;99973.41;4993843;28;20068;-79
2021/01/28 08:46:22;;;;;;;13.43;7.55;;;;;;;4.57;97.82;99966.94;4993369;28;20061;-79
2021/01/28 08:48:48;;;;;;;14.50;8.05;;;;;;;4.69;98.02;99974.97;5004281;28;20061;-78
2021/01/28 08:51:26;;;;;;;13.73;7.63;;;;;;;4.69;97.97;99974.97;4996641;28;20614;-79
2021/01/28 08:53:59;;;;;;;13.45;7.47;;;;;;;4.88;97.57;99969.09;4992186;28;20567;-79
2021/01/28 08:56:31;;;;;;;15.05;7.65;;;;;;;4.70;97.08;99968.53;4994688;28;20447;-79
2021/01/28 08:58:57;;;;;;;14.23;7.47;;;;;;;4.76;96.48;99969.88;4992576;28;20030;-79
2021/01/28 09:01:23;;;;;;;12.60;6.93;;;;;;;4.73;96.74;99969.75;4988499;28;20037;-79
2021/01/28 09:04:13;;;;;;;14.90;7.78;;;;;;;4.69;96.61;99968.84;4996566;28;20026;-79
2021/01/28 09:06:48;;;;;;;13.95;7.47;;;;;;;4.69;96.77;99969.63;4991527;28;20045;-80
2021/01/28 09:09:34;;;;;;;14.05;7.28;;;;;;;4.57;96.67;99958.94;5018588;28;20038;-78
2021/01/28 09:12:30;;;;;;;13.85;7.55;;;;;;;4.77;96.39;99950.09;4974318;28;20057;-79
2021/01/28 09:15:18;;;;;;;13.73;7.25;;;;;;;4.62;96.49;99956.09;4991494;28;20041;-78
2021/01/28 09:17:44;;;;;;;13.30;7.15;;;;;;;4.62;96.66;99958.75;4979737;28;20042;-78
2021/01/28 09:20:28;;;;;;;14.77;8.02;;;;;;;4.57;97.49;99959.72;4981287;28;20041;-78
2021/01/28 09:23:12;;;;;;;12.25;7.10;;;;;;;4.59;96.91;99960.19;4990450;28;20042;-78
2021/01/28 09:25:39;;;;;;;15.07;7.03;;;;;;;4.47;97.27;99946.84;4979953;28;20031;-78
2021/01/28 09:28:11;;;;;;;16.85;8.45;;;;;;;4.62;97.69;99948.09;4971623;28;20042;-78
2021/01/28 09:30:45;;;;;;;16.95;9.30;;;;;;;4.48;96.37;99943.06;5001426;28;21394;-78
2021/01/28 09:33:40;;;;;;;15.35;7.78;;;;;;;4.58;95.88;99926.66;4991471;28;20038;-78
2021/01/28 09:36:25;;;;;;;13.82;7.57;;;;;;;4.59;96.18;99927.41;4954220;28;20055;-78
2021/01/28 09:39:06;;;;;;;12.88;7.63;;;;;;;4.48;95.72;99920.97;4994752;28;20106;-78
2021/01/28 09:41:47;;;;;;;15.25;7.43;;;;;;;4.67;96.18;99923.84;4989088;28;20042;-78
2021/01/28 09:44:34;;;;;;;11.32;6.68;;;;;;;4.81;95.14;99926.19;4977874;28;20030;-78
2021/01/28 09:47:09;;;;;;;11.35;6.95;;;;;;;4.76;95.22;99916.53;4991319;28;20138;-78
2021/01/28 09:49:34;;;;;;;13.05;7.03;;;;;;;4.78;95.54;99910.88;4990474;28;20125;-78
2021/01/28 09:52:00;;;;;;;13.13;7.38;;;;;;;4.77;95.78;99898.63;4987812;28;20113;-78
2021/01/28 09:54:33;;;;;;;12.75;7.43;;;;;;;4.78;95.59;99908.97;4979213;28;20872;-78
2021/01/28 09:56:59;;;;;;;13.45;6.88;;;;;;;4.82;95.93;99903.75;4992536;28;20507;-79
2021/01/28 09:59:24;;;;;;;12.55;6.95;;;;;;;4.93;95.33;99910.19;4975726;28;20109;-78
2021/01/28 10:01:50;;;;;;;10.15;6.13;;;;;;;4.83;94.08;99911.41;4972766;28;20045;-78
2021/01/28 10:04:15;;;;;;;10.52;6.65;;;;;;;4.76;94.06;99910.44;4986496;28;20066;-78
2021/01/28 10:06:41;;;;;;;11.25;6.25;;;;;;;4.68;93.94;99905.97;4992961;28;20141;-78
2021/01/28 10:09:08;;;;;;;9.10;5.45;;;;;;;4.43;92.03;99905.97;4976305;28;20061;-79
2021/01/28 10:11:34;;;;;;;8.77;5.57;;;;;;;4.56;91.54;99912.09;4990225;28;20038;-78
2021/01/28 10:14:00;;;;;;;10.98;5.75;;;;;;;4.67;92.34;99926.53;4993507;28;20068;-78
2021/01/28 10:16:27;;;;;;;9.60;5.53;;;;;;;4.79;92.09;99925.75;4979410;28;20094;-78
2021/01/28 10:18:53;;;;;;;9.15;5.55;;;;;;;4.69;91.70;99934.19;4957987;28;20062;-78
2021/01/28 10:21:19;;;;;;;11.57;5.70;;;;;;;4.71;92.08;99923.97;4989682;28;20069;-78
2021/01/28 10:23:44;;;;;;;8.02;4.97;;;;;;;4.76;91.09;99926.44;4991691;28;20037;-78
2021/01/28 10:26:09;;;;;;;7.05;4.68;;;;;;;4.49;89.22;99909.97;4991986;28;20491;-78
2021/01/28 10:28:35;;;;;;;8.30;5.05;;;;;;;4.54;89.72;99911.63;4987274;28;20384;-78
2021/01/28 10:31:02;;;;;;;7.70;4.70;;;;;;;4.75;89.29;99914.97;4977038;28;20030;-78
2021/01/28 10:33:30;;;;;;;9.63;5.30;;;;;;;4.67;89.41;99915.84;4996437;28;20038;-79
2021/01/28 10:35:56;;;;;;;8.73;4.93;;;;;;;4.67;88.71;99917.75;4980463;28;20380;-78
2021/01/28 10:38:22;;;;;;;8.15;4.50;;;;;;;4.72;87.71;99910.31;4972423;28;20067;-78
2021/01/28 10:40:48;;;;;;;7.45;5.00;;;;;;;4.78;88.08;99918.88;5009489;28;20064;-78
2021/01/28 10:43:13;;;;;;;9.15;4.90;;;;;;;4.76;87.96;99926.44;4990878;28;20040;-78
2021/01/28 10:45:40;;;;;;;8.30;4.90;;;;;;;4.77;87.88;99911.97;4992269;28;20559;-78
2021/01/28 10:48:07;;;;;;;7.80;4.15;;;;;;;4.80;87.05;99912.06;4988484;28;20192;-78
2021/01/28 10:50:34;;;;;;;6.72;4.18;;;;;;;4.85;87.17;99921.75;4979967;28;20049;-78
2021/01/28 10:53:01;;;;;;;8.40;4.90;;;;;;;4.87;86.89;99917.66;4996776;28;20039;-78
2021/01/28 10:55:29;;;;;;;7.38;4.50;;;;;;;4.74;87.58;99913.44;4996828;28;20530;-78
2021/01/28 10:57:55;;;;;;;6.40;4.10;;;;;;;4.70;85.61;99907.22;4983421;28;20038;-78
2021/01/28 11:00:21;;;;;;;7.85;4.20;;;;;;;4.54;86.08;99911.63;4996225;28;20378;-78
2021/01/28 11:02:47;;;;;;;5.55;3.70;;;;;;;4.47;85.72;99900.75;4991214;28;20034;-78
2021/01/28 11:05:14;;;;;;;7.50;4.57;;;;;;;4.78;85.82;99900.22;4995502;28;20026;-79
2021/01/28 11:07:40;;;;;;;6.88;4.07;;;;;;;4.87;86.90;99898.19;4992118;28;20034;-78
2021/01/28 11:10:06;;;;;;;8.43;4.70;;;;;;;4.77;86.62;99894.09;4990247;28;20036;-78
2021/01/28 11:12:31;;;;;;;5.93;3.95;;;;;;;4.73;86.84;99887.88;4993888;28;20409;-79
2021/01/28 11:14:57;;;;;;;6.63;3.80;;;;;;;4.63;86.58;99887.56;4976121;28;20034;-78
2021/01/28 11:17:31;;;;;;;7.25;4.00;;;;;;;4.63;86.54;99888.31;5002108;28;20458;-78
2021/01/28 11:19:56;;;;;;;4.38;3.30;;;;;;;4.88;86.29;99887.19;4988011;28;20069;-79
2021/01/28 11:22:22;;;;;;;4.97;2.72;;;;;;;4.80;85.24;99884.66;4976511;28;20030;-78
2021/01/28 11:24:47;;;;;;;4.82;3.35;;;;;;;4.83;84.21;99866.09;4993056;28;20514;-78
2021/01/28 11:27:13;;;;;;;4.30;3.05;;;;;;;4.93;83.84;99862.19;4980264;28;20128;-78
2021/01/28 11:29:39;;;;;;;3.47;2.85;;;;;;;4.87;84.13;99858.97;4981344;28;20037;-78
2021/01/28 11:32:04;;;;;;;4.40;2.58;;;;;;;4.79;83.54;99862.53;4995532;28;20034;-78
2021/01/28 11:34:31;;;;;;;4.45;2.85;;;;;;;4.87;82.91;99853.63;4980251;28;20084;-78
2021/01/28 11:36:56;;;;;;;4.00;2.65;;;;;;;4.86;83.55;99846.72;4981083;28;20046;-78
2021/01/28 11:39:22;;;;;;;3.72;2.90;;;;;;;4.98;83.54;99848.59;4977574;28;20037;-78
2021/01/28 11:41:47;;;;;;;5.13;3.13;;;;;;;4.99;83.26;99839.50;4971599;28;20038;-78
2021/01/28 11:44:13;;;;;;;6.93;3.20;;;;;;;4.89;83.39;99838.06;5001852;28;20113;-79
2021/01/28 11:46:38;;;;;;;6.82;3.10;;;;;;;4.84;83.83;99830.28;4986946;28;20543;-79
2021/01/28 11:49:04;;;;;;;3.58;2.78;;;;;;;4.68;84.43;99829.44;4998782;28;20044;-79
2021/01/28 11:51:29;;;;;;;5.43;2.90;;;;;;;4.73;83.51;99833.75;5001683;28;20041;-79
2021/01/28 11:53:55;;;;;;;4.97;2.80;;;;;;;4.72;83.82;99827.66;4990905;28;20033;-79
2021/01/28 11:56:20;;;;;;;3.58;2.88;;;;;;;4.74;84.73;99824.66;4975834;28;20041;-79
2021/01/28 11:58:45;;;;;;;5.15;2.60;;;;;;;4.86;84.54;99830.72;4986626;28;20026;-79
2021/01/28 12:01:11;;;;;;;4.65;2.78;;;;;;;4.89;82.88;99819.41;4985072;28;20418;-78
2021/01/28 12:03:36;;;;;;;5.63;3.15;;;;;;;4.99;83.11;99824.28;4967566;28;20068;-79
2021/01/28 12:06:02;;;;;;;2.92;2.60;;;;;;;5.00;83.60;99827.69;4985058;28;20475;-78
2021/01/28 12:08:28;;;;;;;3.90;2.85;;;;;;;5.01;83.31;99831.94;4987969;28;20045;-79
2021/01/28 12:11:26;;;;;;;4.97;3.17;;;;;;;4.93;82.99;99820.28;4973118;28;20035;-79
2021/01/28 12:13:51;;;;;;;5.53;3.28;;;;;;;5.06;83.07;99813.00;4945815;29;20054;-79
2021/01/28 12:16:17;;;;;;;4.93;2.92;;;;;;;5.01;82.64;99815.94;4935691;29;20119;-79
2021/01/28 12:18:42;;;;;;;4.72;2.67;;;;;;;4.90;82.72;99815.59;4933239;29;20039;-79